sensor_id;sensor_type;location;lat;lon;timestamp;pressure;altitude;pressure_sealevel;temperature;humidity
31088;BME280;17745;55.914;37.554;2023-06-14T00:01:39;99561.09;;;16.27;41.15
31088;BME280;17745;55.914;37.554;2023-06-14T00:04:07;99557.66;;;16.22;41.37
31088;BME280;17745;55.914;37.554;2023-06-14T00:06:36;99558.22;;;16.19;41.46
31088;BME280;17745;55.914;37.554;2023-06-14T00:09:08;99557.22;;;16.14;41.55
31088;BME280;17745;55.914;37.554;2023-06-14T00:11:52;99558.56;;;16.12;41.68
31088;BME280;17745;55.914;37.554;2023-06-14T00:14:23;99564.47;;;16.09;41.92
31088;BME280;17745;55.914;37.554;2023-06-14T00:16:53;99554.91;;;16.03;41.91
31088;BME280;17745;55.914;37.554;2023-06-14T00:19:26;99557.03;;;16.00;41.99
31088;BME280;17745;55.914;37.554;2023-06-14T00:21:54;99555.44;;;15.99;42.07
31088;BME280;17745;55.914;37.554;2023-06-14T00:24:23;99549.59;;;15.97;42.17
31088;BME280;17745;55.914;37.554;2023-06-14T00:26:52;99551.75;;;15.95;42.23
31088;BME280;17745;55.914;37.554;2023-06-14T00:29:22;99552.31;;;15.92;42.40
31088;BME280;17745;55.914;37.554;2023-06-14T00:31:50;99546.19;;;15.92;42.43
31088;BME280;17745;55.914;37.554;2023-06-14T00:34:18;99553.09;;;15.87;42.57
31088;BME280;17745;55.914;37.554;2023-06-14T00:36:47;99557.16;;;15.85;42.71
31088;BME280;17745;55.914;37.554;2023-06-14T00:39:14;99557.72;;;15.82;42.83
31088;BME280;17745;55.914;37.554;2023-06-14T00:41:43;99556.38;;;15.79;42.94
31088;BME280;17745;55.914;37.554;2023-06-14T00:44:16;99561.72;;;15.79;43.11
31088;BME280;17745;55.914;37.554;2023-06-14T00:46:45;99558.25;;;15.79;43.40
31088;BME280;17745;55.914;37.554;2023-06-14T00:49:16;99561.47;;;15.76;43.40
31088;BME280;17745;55.914;37.554;2023-06-14T00:51:48;99559.34;;;15.72;43.47
31088;BME280;17745;55.914;37.554;2023-06-14T00:54:18;99557.75;;;15.71;43.53
31088;BME280;17745;55.914;37.554;2023-06-14T00:56:47;99559.91;;;15.69;43.64
31088;BME280;17745;55.914;37.554;2023-06-14T00:59:17;99551.09;;;15.69;43.74
31088;BME280;17745;55.914;37.554;2023-06-14T01:01:45;99552.97;;;15.68;43.98
31088;BME280;17745;55.914;37.554;2023-06-14T01:04:14;99550.59;;;15.67;44.08
31088;BME280;17745;55.914;37.554;2023-06-14T01:06:48;99543.66;;;15.66;44.22
31088;BME280;17745;55.914;37.554;2023-06-14T01:09:27;99551.66;;;15.66;44.47
31088;BME280;17745;55.914;37.554;2023-06-14T01:11:58;99551.13;;;15.64;44.80
31088;BME280;17745;55.914;37.554;2023-06-14T01:14:31;99555.09;;;15.71;44.28
31088;BME280;17745;55.914;37.554;2023-06-14T01:17:02;99554.31;;;15.66;44.51
31088;BME280;17745;55.914;37.554;2023-06-14T01:19:32;99553.25;;;15.67;44.61
31088;BME280;17745;55.914;37.554;2023-06-14T01:22:02;99556.44;;;15.69;44.70
31088;BME280;17745;55.914;37.554;2023-06-14T01:24:34;99555.09;;;15.71;44.79
31088;BME280;17745;55.914;37.554;2023-06-14T01:27:03;99569.25;;;15.72;45.16
31088;BME280;17745;55.914;37.554;2023-06-14T01:29:34;99560.69;;;15.70;45.20
31088;BME280;17745;55.914;37.554;2023-06-14T01:32:04;99556.69;;;15.72;45.08
31088;BME280;17745;55.914;37.554;2023-06-14T01:34:37;99563.06;;;15.77;44.97
31088;BME280;17745;55.914;37.554;2023-06-14T01:37:06;99559.28;;;15.83;44.83
31088;BME280;17745;55.914;37.554;2023-06-14T01:39:36;99561.66;;;15.90;44.74
31088;BME280;17745;55.914;37.554;2023-06-14T01:42:07;99555.50;;;15.94;44.63
31088;BME280;17745;55.914;37.554;2023-06-14T01:44:35;99564.53;;;15.98;44.61
31088;BME280;17745;55.914;37.554;2023-06-14T01:47:04;99561.59;;;16.00;44.51
31088;BME280;17745;55.914;37.554;2023-06-14T01:49:34;99561.84;;;15.98;44.44
31088;BME280;17745;55.914;37.554;2023-06-14T01:52:05;99569.31;;;16.01;44.44
31088;BME280;17745;55.914;37.554;2023-06-14T01:54:38;99556.25;;;16.00;44.55
31088;BME280;17745;55.914;37.554;2023-06-14T01:57:08;99556.72;;;16.07;44.76
31088;BME280;17745;55.914;37.554;2023-06-14T01:59:37;99559.91;;;16.09;44.82
31088;BME280;17745;55.914;37.554;2023-06-14T02:02:05;99560.94;;;16.13;44.92
31088;BME280;17745;55.914;37.554;2023-06-14T02:04:33;99559.56;;;16.16;44.97
31088;BME280;17745;55.914;37.554;2023-06-14T02:07:02;99560.84;;;16.24;44.98
31088;BME280;17745;55.914;37.554;2023-06-14T02:09:30;99561.88;;;16.28;44.99
31088;BME280;17745;55.914;37.554;2023-06-14T02:12:01;99567.97;;;16.34;45.03
31088;BME280;17745;55.914;37.554;2023-06-14T02:14:29;99562.00;;;16.42;45.06
31088;BME280;17745;55.914;37.554;2023-06-14T02:16:58;99565.72;;;16.46;45.04
31088;BME280;17745;55.914;37.554;2023-06-14T02:19:31;99568.09;;;16.48;45.14
31088;BME280;17745;55.914;37.554;2023-06-14T02:22:06;99574.25;;;16.48;45.36
31088;BME280;17745;55.914;37.554;2023-06-14T02:24:34;99572.09;;;16.50;45.43
31088;BME280;17745;55.914;37.554;2023-06-14T02:27:09;99572.34;;;16.54;45.53
31088;BME280;17745;55.914;37.554;2023-06-14T02:29:38;99569.88;;;16.57;45.62
31088;BME280;17745;55.914;37.554;2023-06-14T02:32:07;99572.28;;;16.59;45.75
31088;BME280;17745;55.914;37.554;2023-06-14T02:34:36;99570.44;;;16.54;46.02
31088;BME280;17745;55.914;37.554;2023-06-14T02:37:07;99570.44;;;16.54;46.11
31088;BME280;17745;55.914;37.554;2023-06-14T02:39:35;99568.53;;;16.60;46.19
31088;BME280;17745;55.914;37.554;2023-06-14T02:42:04;99567.88;;;16.68;46.19
31088;BME280;17745;55.914;37.554;2023-06-14T02:44:34;99573.91;;;16.79;46.14
31088;BME280;17745;55.914;37.554;2023-06-14T02:47:03;99570.12;;;16.85;46.11
31088;BME280;17745;55.914;37.554;2023-06-14T02:49:31;99576.50;;;16.90;46.20
31088;BME280;17745;55.914;37.554;2023-06-14T02:52:00;99579.38;;;16.93;46.18
31088;BME280;17745;55.914;37.554;2023-06-14T02:54:29;99583.56;;;17.05;46.16
31088;BME280;17745;55.914;37.554;2023-06-14T02:56:58;99584.22;;;17.15;46.04
31088;BME280;17745;55.914;37.554;2023-06-14T02:59:26;99580.63;;;17.25;45.97
31088;BME280;17745;55.914;37.554;2023-06-14T03:01:57;99581.06;;;17.33;45.84
31088;BME280;17745;55.914;37.554;2023-06-14T03:04:25;99585.19;;;17.44;45.82
31088;BME280;17745;55.914;37.554;2023-06-14T03:07:03;99583.69;;;17.57;45.76
31088;BME280;17745;55.914;37.554;2023-06-14T03:09:39;99590.41;;;17.74;45.61
31088;BME280;17745;55.914;37.554;2023-06-14T03:12:08;99589.37;;;17.89;45.42
31088;BME280;17745;55.914;37.554;2023-06-14T03:14:38;99584.59;;;18.05;45.18
31088;BME280;17745;55.914;37.554;2023-06-14T03:17:10;99580.06;;;18.19;44.93
31088;BME280;17745;55.914;37.554;2023-06-14T03:19:41;99584.38;;;18.34;44.70
31088;BME280;17745;55.914;37.554;2023-06-14T03:22:09;99591.75;;;18.42;44.58
31088;BME280;17745;55.914;37.554;2023-06-14T03:24:42;99585.69;;;18.51;44.32
31088;BME280;17745;55.914;37.554;2023-06-14T03:27:13;99585.31;;;18.57;44.14
31088;BME280;17745;55.914;37.554;2023-06-14T03:29:42;99592.97;;;18.64;43.91
31088;BME280;17745;55.914;37.554;2023-06-14T03:32:18;99592.66;;;18.66;43.83
31088;BME280;17745;55.914;37.554;2023-06-14T03:34:46;99594.94;;;18.72;43.70
31088;BME280;17745;55.914;37.554;2023-06-14T03:37:16;99591.88;;;18.79;43.54
31088;BME280;17745;55.914;37.554;2023-06-14T03:39:45;99588.19;;;18.89;43.39
31088;BME280;17745;55.914;37.554;2023-06-14T03:42:14;99584.44;;;19.04;43.17
31088;BME280;17745;55.914;37.554;2023-06-14T03:44:42;99583.63;;;19.18;42.81
31088;BME280;17745;55.914;37.554;2023-06-14T03:47:12;99581.53;;;19.28;42.63
31088;BME280;17745;55.914;37.554;2023-06-14T03:49:43;99583.19;;;19.38;42.38
31088;BME280;17745;55.914;37.554;2023-06-14T03:52:13;99580.28;;;19.49;42.08
31088;BME280;17745;55.914;37.554;2023-06-14T03:54:43;99579.88;;;19.55;41.88
31088;BME280;17745;55.914;37.554;2023-06-14T03:57:13;99579.66;;;19.66;41.74
31088;BME280;17745;55.914;37.554;2023-06-14T03:59:42;99574.69;;;19.82;41.50
31088;BME280;17745;55.914;37.554;2023-06-14T04:02:11;99571.09;;;19.86;40.97
31088;BME280;17745;55.914;37.554;2023-06-14T04:04:45;99573.31;;;19.84;40.83
31088;BME280;17745;55.914;37.554;2023-06-14T04:07:14;99575.59;;;19.91;40.89
31088;BME280;17745;55.914;37.554;2023-06-14T04:09:46;99573.25;;;19.98;40.88
31088;BME280;17745;55.914;37.554;2023-06-14T04:12:15;99576.78;;;20.08;40.82
31088;BME280;17745;55.914;37.554;2023-06-14T04:14:43;99580.69;;;20.24;40.71
31088;BME280;17745;55.914;37.554;2023-06-14T04:17:11;99579.63;;;20.34;40.55
31088;BME280;17745;55.914;37.554;2023-06-14T04:19:40;99578.91;;;20.42;40.43
31088;BME280;17745;55.914;37.554;2023-06-14T04:22:11;99579.91;;;20.55;40.22
31088;BME280;17745;55.914;37.554;2023-06-14T04:24:40;99573.13;;;20.67;40.05
31088;BME280;17745;55.914;37.554;2023-06-14T04:27:08;99578.88;;;20.74;39.89
31088;BME280;17745;55.914;37.554;2023-06-14T04:29:37;99571.09;;;20.73;39.60
31088;BME280;17745;55.914;37.554;2023-06-14T04:32:12;99583.13;;;20.75;39.50
31088;BME280;17745;55.914;37.554;2023-06-14T04:34:40;99572.09;;;20.85;39.53
31088;BME280;17745;55.914;37.554;2023-06-14T04:37:10;99570.72;;;20.97;39.14
31088;BME280;17745;55.914;37.554;2023-06-14T04:39:39;99575.16;;;21.02;39.11
31088;BME280;17745;55.914;37.554;2023-06-14T04:42:09;99578.97;;;21.09;39.16
31088;BME280;17745;55.914;37.554;2023-06-14T04:44:41;99574.41;;;21.19;38.62
31088;BME280;17745;55.914;37.554;2023-06-14T04:47:10;99571.56;;;21.24;38.49
31088;BME280;17745;55.914;37.554;2023-06-14T04:49:39;99572.03;;;21.26;38.58
31088;BME280;17745;55.914;37.554;2023-06-14T04:52:11;99578.38;;;21.39;38.60
31088;BME280;17745;55.914;37.554;2023-06-14T04:54:39;99575.53;;;21.62;38.41
31088;BME280;17745;55.914;37.554;2023-06-14T04:57:10;99580.94;;;21.79;38.23
31088;BME280;17745;55.914;37.554;2023-06-14T04:59:40;99576.16;;;21.94;37.86
31088;BME280;17745;55.914;37.554;2023-06-14T05:02:11;99565.84;;;22.05;37.63
31088;BME280;17745;55.914;37.554;2023-06-14T05:04:39;99570.06;;;22.23;37.35
31088;BME280;17745;55.914;37.554;2023-06-14T05:07:11;99575.09;;;22.34;36.89
31088;BME280;17745;55.914;37.554;2023-06-14T05:09:44;99571.91;;;22.40;36.54
31088;BME280;17745;55.914;37.554;2023-06-14T05:12:12;99570.03;;;22.41;35.97
31088;BME280;17745;55.914;37.554;2023-06-14T05:14:59;99571.78;;;22.37;35.31
31088;BME280;17745;55.914;37.554;2023-06-14T05:17:49;99570.34;;;22.31;34.76
31088;BME280;17745;55.914;37.554;2023-06-14T05:20:21;99574.03;;;22.35;34.44
31088;BME280;17745;55.914;37.554;2023-06-14T05:22:57;99575.88;;;22.43;34.67
31088;BME280;17745;55.914;37.554;2023-06-14T05:28:21;99566.16;;;22.60;34.12
31088;BME280;17745;55.914;37.554;2023-06-14T05:30:51;99569.66;;;22.60;33.98
31088;BME280;17745;55.914;37.554;2023-06-14T05:33:21;99567.59;;;22.57;33.51
31088;BME280;17745;55.914;37.554;2023-06-14T05:35:52;99571.38;;;22.65;33.59
31088;BME280;17745;55.914;37.554;2023-06-14T05:38:24;99565.91;;;22.82;33.43
31088;BME280;17745;55.914;37.554;2023-06-14T05:40:55;99568.50;;;23.00;33.07
31088;BME280;17745;55.914;37.554;2023-06-14T05:43:24;99565.75;;;23.09;32.96
31088;BME280;17745;55.914;37.554;2023-06-14T05:45:53;99566.16;;;23.20;32.81
31088;BME280;17745;55.914;37.554;2023-06-14T05:48:37;99568.16;;;23.32;32.57
31088;BME280;17745;55.914;37.554;2023-06-14T05:51:10;99566.50;;;23.39;32.20
31088;BME280;17745;55.914;37.554;2023-06-14T05:53:47;99561.81;;;23.49;32.03
31088;BME280;17745;55.914;37.554;2023-06-14T05:56:17;99567.41;;;23.65;31.85
31088;BME280;17745;55.914;37.554;2023-06-14T05:58:47;99571.50;;;23.71;31.74
31088;BME280;17745;55.914;37.554;2023-06-14T06:01:20;99574.91;;;23.80;31.59
31088;BME280;17745;55.914;37.554;2023-06-14T06:03:53;99576.38;;;23.90;31.45
31088;BME280;17745;55.914;37.554;2023-06-14T06:06:22;99573.69;;;23.90;31.16
31088;BME280;17745;55.914;37.554;2023-06-14T06:09:02;99580.00;;;23.94;30.97
31088;BME280;17745;55.914;37.554;2023-06-14T06:11:32;99571.69;;;23.99;30.39
31088;BME280;17745;55.914;37.554;2023-06-14T06:14:13;99574.72;;;23.98;30.43
31088;BME280;17745;55.914;37.554;2023-06-14T06:16:50;99579.28;;;24.06;30.46
31088;BME280;17745;55.914;37.554;2023-06-14T06:19:37;99582.94;;;24.23;30.31
31088;BME280;17745;55.914;37.554;2023-06-14T06:22:08;99572.00;;;24.32;30.26
31088;BME280;17745;55.914;37.554;2023-06-14T06:24:52;99565.25;;;24.38;29.98
31088;BME280;17745;55.914;37.554;2023-06-14T06:27:22;99575.75;;;24.39;29.63
31088;BME280;17745;55.914;37.554;2023-06-14T06:29:55;99575.50;;;24.45;29.59
31088;BME280;17745;55.914;37.554;2023-06-14T06:32:26;99572.59;;;24.50;29.18
31088;BME280;17745;55.914;37.554;2023-06-14T06:35:16;99565.38;;;24.54;29.07
31088;BME280;17745;55.914;37.554;2023-06-14T06:37:53;99569.66;;;24.55;28.62
31088;BME280;17745;55.914;37.554;2023-06-14T06:40:53;99563.91;;;24.56;28.40
31088;BME280;17745;55.914;37.554;2023-06-14T06:43:31;99565.81;;;24.68;28.04
31088;BME280;17745;55.914;37.554;2023-06-14T06:46:11;99563.91;;;24.69;28.02
31088;BME280;17745;55.914;37.554;2023-06-14T06:48:47;99550.25;;;24.28;28.26
31088;BME280;17745;55.914;37.554;2023-06-14T06:51:19;99561.22;;;24.44;28.33
31088;BME280;17745;55.914;37.554;2023-06-14T06:53:53;99552.06;;;24.49;28.15
31088;BME280;17745;55.914;37.554;2023-06-14T06:56:32;99546.09;;;24.43;27.75
31088;BME280;17745;55.914;37.554;2023-06-14T06:59:32;99542.94;;;24.53;27.28
31088;BME280;17745;55.914;37.554;2023-06-14T07:02:46;99559.41;;;24.61;27.00
31088;BME280;17745;55.914;37.554;2023-06-14T07:05:19;99554.00;;;24.48;26.79
31088;BME280;17745;55.914;37.554;2023-06-14T07:07:56;99561.28;;;24.23;26.92
31088;BME280;17745;55.914;37.554;2023-06-14T07:10:38;99555.00;;;24.31;26.72
31088;BME280;17745;55.914;37.554;2023-06-14T07:13:35;99558.94;;;24.46;26.85
31088;BME280;17745;55.914;37.554;2023-06-14T07:16:22;99556.34;;;24.75;26.79
31088;BME280;17745;55.914;37.554;2023-06-14T07:19:09;99545.41;;;24.96;26.81
31088;BME280;17745;55.914;37.554;2023-06-14T07:21:52;99562.09;;;25.10;26.66
31088;BME280;17745;55.914;37.554;2023-06-14T07:24:48;99542.31;;;25.10;26.30
31088;BME280;17745;55.914;37.554;2023-06-14T07:27:47;99551.13;;;25.07;26.25
31088;BME280;17745;55.914;37.554;2023-06-14T07:30:44;99552.31;;;24.93;26.24
31088;BME280;17745;55.914;37.554;2023-06-14T07:33:56;99539.88;;;25.05;26.05
31088;BME280;17745;55.914;37.554;2023-06-14T07:37:00;99543.09;;;25.23;26.14
31088;BME280;17745;55.914;37.554;2023-06-14T07:43:28;99542.78;;;25.53;25.73
31088;BME280;17745;55.914;37.554;2023-06-14T08:00:19;99534.91;;;25.48;24.82
31088;BME280;17745;55.914;37.554;2023-06-14T08:02:51;99530.38;;;25.52;25.04
31088;BME280;17745;55.914;37.554;2023-06-14T08:05:32;99528.75;;;25.63;25.00
31088;BME280;17745;55.914;37.554;2023-06-14T08:08:44;99536.13;;;25.50;24.95
31088;BME280;17745;55.914;37.554;2023-06-14T08:11:40;99534.66;;;25.53;24.87
31088;BME280;17745;55.914;37.554;2023-06-14T08:14:16;99531.62;;;25.54;24.94
31088;BME280;17745;55.914;37.554;2023-06-14T08:17:17;99533.47;;;25.66;25.06
31088;BME280;17745;55.914;37.554;2023-06-14T08:20:10;99544.69;;;25.81;25.00
31088;BME280;17745;55.914;37.554;2023-06-14T08:23:10;99538.25;;;26.02;24.87
31088;BME280;17745;55.914;37.554;2023-06-14T08:25:42;99538.72;;;26.20;24.73
31088;BME280;17745;55.914;37.554;2023-06-14T08:28:12;99545.34;;;26.06;24.65
31088;BME280;17745;55.914;37.554;2023-06-14T08:30:52;99551.56;;;26.07;24.84
31088;BME280;17745;55.914;37.554;2023-06-14T08:33:30;99545.06;;;26.11;24.74
31088;BME280;17745;55.914;37.554;2023-06-14T08:36:45;99540.78;;;25.94;24.50
31088;BME280;17745;55.914;37.554;2023-06-14T08:39:43;99535.66;;;25.77;24.53
31088;BME280;17745;55.914;37.554;2023-06-14T08:42:57;99536.81;;;25.76;24.57
31088;BME280;17745;55.914;37.554;2023-06-14T08:49:53;99533.50;;;25.82;24.81
31088;BME280;17745;55.914;37.554;2023-06-14T08:53:21;99520.84;;;26.03;24.85
31088;BME280;17745;55.914;37.554;2023-06-14T08:57:19;99529.94;;;26.10;24.67
31088;BME280;17745;55.914;37.554;2023-06-14T09:01:11;99520.28;;;26.25;24.72
31088;BME280;17745;55.914;37.554;2023-06-14T18:36:34;99397.94;;;22.98;24.88
31088;BME280;17745;55.914;37.554;2023-06-14T18:39:25;99404.19;;;22.90;24.88
31088;BME280;17745;55.914;37.554;2023-06-14T18:42:00;99399.69;;;22.81;25.18
31088;BME280;17745;55.914;37.554;2023-06-14T18:44:38;99397.03;;;22.73;25.24
31088;BME280;17745;55.914;37.554;2023-06-14T18:47:21;99400.41;;;22.69;25.45
31088;BME280;17745;55.914;37.554;2023-06-14T18:53:17;99401.25;;;22.61;25.49
31088;BME280;17745;55.914;37.554;2023-06-14T18:55:47;99406.53;;;22.58;25.63
31088;BME280;17745;55.914;37.554;2023-06-14T18:58:26;99412.44;;;22.51;25.59
31088;BME280;17745;55.914;37.554;2023-06-14T19:01:00;99410.06;;;22.49;25.75
31088;BME280;17745;55.914;37.554;2023-06-14T19:03:33;99408.63;;;22.43;25.88
31088;BME280;17745;55.914;37.554;2023-06-14T19:06:23;99402.97;;;22.36;25.93
31088;BME280;17745;55.914;37.554;2023-06-14T19:12:36;99395.41;;;22.29;26.17
31088;BME280;17745;55.914;37.554;2023-06-14T19:15:11;99396.19;;;22.30;26.16
31088;BME280;17745;55.914;37.554;2023-06-14T19:17:56;99400.19;;;22.23;26.12
31088;BME280;17745;55.914;37.554;2023-06-14T19:20:52;99403.50;;;22.29;26.00
31088;BME280;17745;55.914;37.554;2023-06-14T19:23:33;99402.12;;;22.14;26.35
31088;BME280;17745;55.914;37.554;2023-06-14T19:26:27;99408.72;;;22.04;26.37
31088;BME280;17745;55.914;37.554;2023-06-14T19:29:13;99396.19;;;21.99;26.75
31088;BME280;17745;55.914;37.554;2023-06-14T19:32:22;99395.44;;;21.90;26.99
31088;BME280;17745;55.914;37.554;2023-06-14T19:35:29;99406.25;;;21.81;27.29
31088;BME280;17745;55.914;37.554;2023-06-14T19:38:16;99396.59;;;21.71;27.30
31088;BME280;17745;55.914;37.554;2023-06-14T19:41:53;99399.47;;;21.66;27.45
31088;BME280;17745;55.914;37.554;2023-06-14T19:45:24;99401.53;;;21.61;27.59
31088;BME280;17745;55.914;37.554;2023-06-14T19:48:55;99404.41;;;21.55;27.69
31088;BME280;17745;55.914;37.554;2023-06-14T19:52:36;99400.44;;;21.53;27.94
31088;BME280;17745;55.914;37.554;2023-06-14T19:56:04;99407.13;;;21.47;28.14
31088;BME280;17745;55.914;37.554;2023-06-14T20:43:31;99428.09;;;20.97;30.44
31088;BME280;17745;55.914;37.554;2023-06-14T20:46:38;99425.56;;;20.92;30.40
31088;BME280;17745;55.914;37.554;2023-06-14T20:49:44;99429.19;;;20.87;30.68
31088;BME280;17745;55.914;37.554;2023-06-14T20:52:30;99433.12;;;20.81;30.80
31088;BME280;17745;55.914;37.554;2023-06-14T20:55:19;99430.25;;;20.77;31.02
31088;BME280;17745;55.914;37.554;2023-06-14T21:09:11;99429.75;;;20.57;31.53
31088;BME280;17745;55.914;37.554;2023-06-14T21:12:16;99433.72;;;20.51;31.66
31088;BME280;17745;55.914;37.554;2023-06-14T21:15:38;99433.84;;;20.46;31.71
31088;BME280;17745;55.914;37.554;2023-06-14T21:18:42;99436.37;;;20.42;31.87
31088;BME280;17745;55.914;37.554;2023-06-14T21:21:23;99429.41;;;20.33;31.96
31088;BME280;17745;55.914;37.554;2023-06-14T21:23:54;99443.28;;;20.26;32.47
31088;BME280;17745;55.914;37.554;2023-06-14T21:26:31;99435.38;;;20.21;32.84
31088;BME280;17745;55.914;37.554;2023-06-14T21:29:13;99438.97;;;20.16;33.10
31088;BME280;17745;55.914;37.554;2023-06-14T21:32:02;99432.31;;;20.13;33.21
31088;BME280;17745;55.914;37.554;2023-06-14T21:34:32;99435.34;;;20.12;33.29
31088;BME280;17745;55.914;37.554;2023-06-14T21:37:19;99431.66;;;20.08;33.37
31088;BME280;17745;55.914;37.554;2023-06-14T21:40:17;99431.19;;;20.06;33.29
31088;BME280;17745;55.914;37.554;2023-06-14T21:43:44;99434.00;;;20.00;33.38
31088;BME280;17745;55.914;37.554;2023-06-14T21:46:40;99427.34;;;19.98;33.39
31088;BME280;17745;55.914;37.554;2023-06-14T21:49:12;99431.00;;;19.93;33.41
31088;BME280;17745;55.914;37.554;2023-06-14T21:52:00;99425.91;;;19.92;33.37
31088;BME280;17745;55.914;37.554;2023-06-14T21:54:36;99425.12;;;19.91;33.37
31088;BME280;17745;55.914;37.554;2023-06-14T21:57:22;99428.72;;;19.86;33.48
31088;BME280;17745;55.914;37.554;2023-06-14T22:00:27;99421.44;;;19.87;33.51
31088;BME280;17745;55.914;37.554;2023-06-14T22:03:31;99422.06;;;19.84;33.63
31088;BME280;17745;55.914;37.554;2023-06-14T22:06:46;99424.88;;;19.79;33.64
31088;BME280;17745;55.914;37.554;2023-06-14T22:09:46;99417.44;;;19.76;33.77
31088;BME280;17745;55.914;37.554;2023-06-14T22:12:46;99420.75;;;19.73;33.84
31088;BME280;17745;55.914;37.554;2023-06-14T22:16:02;99420.38;;;19.65;34.01
31088;BME280;17745;55.914;37.554;2023-06-14T22:18:41;99424.31;;;19.59;34.24
31088;BME280;17745;55.914;37.554;2023-06-14T22:21:15;99422.53;;;19.54;34.18
31088;BME280;17745;55.914;37.554;2023-06-14T22:23:59;99414.00;;;19.52;34.22
31088;BME280;17745;55.914;37.554;2023-06-14T22:26:33;99420.47;;;19.51;34.31
31088;BME280;17745;55.914;37.554;2023-06-14T22:29:19;99427.59;;;19.56;34.20
31088;BME280;17745;55.914;37.554;2023-06-14T22:31:57;99427.38;;;19.43;34.46
31088;BME280;17745;55.914;37.554;2023-06-14T22:34:29;99427.69;;;19.42;34.51
31088;BME280;17745;55.914;37.554;2023-06-14T22:37:11;99425.91;;;19.37;34.52
31088;BME280;17745;55.914;37.554;2023-06-14T22:40:05;99419.56;;;19.33;34.63
31088;BME280;17745;55.914;37.554;2023-06-14T22:42:55;99419.56;;;19.33;34.67
31088;BME280;17745;55.914;37.554;2023-06-14T22:45:33;99415.41;;;19.27;34.75
31088;BME280;17745;55.914;37.554;2023-06-14T22:48:38;99422.19;;;19.24;34.79
31088;BME280;17745;55.914;37.554;2023-06-14T22:51:45;99416.34;;;19.22;34.81
31088;BME280;17745;55.914;37.554;2023-06-14T22:54:46;99415.06;;;19.20;34.75
31088;BME280;17745;55.914;37.554;2023-06-14T22:57:36;99408.09;;;19.19;34.80
31088;BME280;17745;55.914;37.554;2023-06-14T23:00:32;99417.72;;;19.20;34.79
31088;BME280;17745;55.914;37.554;2023-06-14T23:03:22;99413.47;;;19.19;34.85
31088;BME280;17745;55.914;37.554;2023-06-14T23:05:57;99405.53;;;19.13;34.94
31088;BME280;17745;55.914;37.554;2023-06-14T23:08:28;99412.97;;;19.17;34.89
31088;BME280;17745;55.914;37.554;2023-06-14T23:10:59;99417.06;;;19.14;34.98
31088;BME280;17745;55.914;37.554;2023-06-14T23:13:34;99416.88;;;19.10;35.02
31088;BME280;17745;55.914;37.554;2023-06-14T23:16:05;99411.03;;;19.08;35.11
31088;BME280;17745;55.914;37.554;2023-06-14T23:18:35;99408.44;;;19.03;35.20
31088;BME280;17745;55.914;37.554;2023-06-14T23:21:07;99410.16;;;18.99;35.29
31088;BME280;17745;55.914;37.554;2023-06-14T23:23:40;99409.56;;;19.02;35.27
31088;BME280;17745;55.914;37.554;2023-06-14T23:26:13;99408.78;;;19.02;35.19
31088;BME280;17745;55.914;37.554;2023-06-14T23:28:42;99409.88;;;19.00;35.21
31088;BME280;17745;55.914;37.554;2023-06-14T23:31:27;99412.84;;;18.99;35.21
31088;BME280;17745;55.914;37.554;2023-06-14T23:33:57;99406.97;;;18.97;35.17
31088;BME280;17745;55.914;37.554;2023-06-14T23:36:35;99408.06;;;18.96;35.17
31088;BME280;17745;55.914;37.554;2023-06-14T23:39:08;99414.53;;;18.95;35.15
31088;BME280;17745;55.914;37.554;2023-06-14T23:41:37;99407.09;;;18.92;35.10
31088;BME280;17745;55.914;37.554;2023-06-14T23:44:06;99413.53;;;18.91;35.10
31088;BME280;17745;55.914;37.554;2023-06-14T23:46:34;99410.38;;;18.89;35.08
31088;BME280;17745;55.914;37.554;2023-06-14T23:49:04;99408.75;;;18.87;35.03
31088;BME280;17745;55.914;37.554;2023-06-14T23:51:33;99407.50;;;18.85;35.02
31088;BME280;17745;55.914;37.554;2023-06-14T23:54:04;99400.84;;;18.82;35.07
31088;BME280;17745;55.914;37.554;2023-06-14T23:56:33;99396.97;;;18.75;35.06
31088;BME280;17745;55.914;37.554;2023-06-14T23:59:04;99408.63;;;18.70;35.13
